KPSC/PSC METAR and TAF weather

Enter ICAO airport designator
Station Type Date Time Source
KPSC METAR 2020/09/20 13:53 UTC NOAA

KPSC 201353Z 10004KT 10SM CLR 13/11 A3005 RMK AO2 SLP175 T01330106


Station Type Date Time Source
KPSC Decoded METAR 2020/09/20 13:53 UTC NOAA

TRI-CITIES AIRPORT, WA, United States (KPSC) 46-16N 119-07W 121M
Sep 20, 2020 - 09:53 AM EDT / 2020.09.20 1353 UTC
Wind: from the E (100 degrees) at 5 MPH (4 KT):0
Visibility: 10 mile(s):0
Sky conditions: clear
Temperature: 55.9 F (13.3 C)
Dew Point: 51.1 F (10.6 C)
Relative Humidity: 83%
Pressure (altimeter): 30.05 in. Hg (1017 hPa)
ob: KPSC 201353Z 10004KT 10SM CLR 13/11 A3005 RMK AO2 SLP175 T01330106
cycle: 14

Station Type Date Time Source
KPSC TAF 2020/09/20 12:22 UTC NOAA

TAF KPSC 201120Z 2012/2112 19006KT P6SM SKC
TEMPO 2012/2013 SCT080
FM202000 22008KT P6SM SKC
FM210300 VRB04KT P6SM SCT250

Example: see airport list